Time;durP1;ratioP1;P1;durP2;ratioP2;P2;SDS_P1;SDS_P2;PMS_P1;PMS_P2;Temp;Humidity;BMP_temperature;BMP_pressure;BME280_temperature;BME280_humidity;BME280_pressure;Samples;Min_cycle;Max_cycle;Signal;HPM_P1;HPM_P2
2023/10/30 00:01:52;;;;;;;;;0.00;0.00;;;;;10.77;84.63;99656.38;5053165;28;9521;-69
2023/10/30 00:04:19;;;;;;;;;0.25;0.25;;;;;10.78;84.70;99673.38;5047396;28;9508;-69
2023/10/30 00:06:45;;;;;;;;;0.00;0.00;;;;;10.75;84.79;99668.44;5034322;28;9647;-69
2023/10/30 00:09:12;;;;;;;;;0.00;0.00;;;;;10.78;85.13;99676.91;5040905;28;9480;-69
2023/10/30 00:11:38;;;;;;;;;0.00;0.00;;;;;10.71;85.03;99683.41;5052553;28;10253;-68
2023/10/30 00:14:05;;;;;;;;;0.00;0.00;;;;;10.68;85.04;99681.97;5025455;28;9480;-69
2023/10/30 00:16:31;;;;;;;;;0.00;0.00;;;;;10.66;85.36;99684.06;5028341;28;9617;-69
2023/10/30 00:19:02;;;;;;;;;0.00;0.00;;;;;10.66;85.62;99692.16;5054330;28;9751;-70
2023/10/30 00:21:28;;;;;;;;;0.00;0.00;;;;;10.62;85.69;99697.16;5045896;28;9648;-69
2023/10/30 00:23:55;;;;;;;;;0.00;0.00;;;;;10.70;85.89;99700.59;5051278;28;9656;-69
2023/10/30 00:26:21;;;;;;;;;0.75;0.75;;;;;10.74;85.54;99699.94;5053310;28;9596;-68
2023/10/30 00:28:48;;;;;;;;;2.00;0.00;;;;;10.69;85.85;99701.63;5053498;28;9701;-70
2023/10/30 00:31:15;;;;;;;;;1.25;0.50;;;;;10.71;85.92;99696.84;5013583;28;9735;-70
2023/10/30 00:33:41;;;;;;;;;1.75;0.25;;;;;10.71;85.48;99700.38;5025967;28;9665;-70
2023/10/30 00:36:08;;;;;;;;;1.00;1.00;;;;;10.69;85.94;99704.31;5043878;28;9571;-70
2023/10/30 00:38:35;;;;;;;;;0.00;0.00;;;;;10.66;85.73;99705.59;5048394;28;9536;-70
2023/10/30 00:41:01;;;;;;;;;0.00;0.00;;;;;10.67;85.82;99696.47;5032898;28;9598;-69
2023/10/30 00:43:28;;;;;;;;;0.00;0.00;;;;;10.71;86.37;99702.25;5045841;28;9622;-69
2023/10/30 00:45:54;;;;;;;;;0.75;0.75;;;;;10.70;86.20;99701.41;5036301;28;9596;-70
2023/10/30 00:48:25;;;;;;;;;1.00;1.00;;;;;10.72;86.31;99702.00;5051804;28;10497;-67
2023/10/30 00:50:51;;;;;;;;;0.25;0.25;;;;;10.71;86.16;99702.25;5028526;28;9984;-70
2023/10/30 00:53:18;;;;;;;;;0.00;0.00;;;;;10.71;86.52;99711.13;5030330;28;9763;-69
2023/10/30 00:55:49;;;;;;;;;0.75;0.25;;;;;10.71;86.42;99711.13;5039312;28;9689;-69
2023/10/30 00:58:15;;;;;;;;;0.75;0.00;;;;;10.70;86.23;99724.81;5021317;28;9602;-69
2023/10/30 01:00:41;;;;;;;;;0.00;0.00;;;;;10.68;86.31;99727.72;5048790;28;9694;-71
2023/10/30 01:03:08;;;;;;;;;2.00;1.00;;;;;10.64;86.56;99729.22;5048804;28;9689;-71
2023/10/30 01:05:35;;;;;;;;;1.00;0.00;;;;;10.65;86.86;99730.84;5053374;28;10492;-67
2023/10/30 01:08:08;;;;;;;;;1.00;0.00;;;;;10.68;87.08;99727.72;5034463;28;9666;-69
2023/10/30 01:10:37;;;;;;;;;0.00;0.00;;;;;10.63;86.91;99735.66;5030523;28;9785;-69
2023/10/30 01:13:04;;;;;;;;;0.00;0.00;;;;;10.61;87.03;99729.66;5044500;28;9764;-69
2023/10/30 01:15:32;;;;;;;;;1.75;1.00;;;;;10.56;87.27;99730.31;5028291;28;9686;-70
2023/10/30 01:17:59;;;;;;;;;1.25;1.25;;;;;10.49;87.23;99728.72;5032675;28;9656;-70
2023/10/30 01:20:26;;;;;;;;;1.00;1.00;;;;;10.47;87.46;99737.03;5047944;28;9843;-69
2023/10/30 01:22:52;;;;;;;;;1.00;1.00;;;;;10.49;87.52;99734.09;5040589;28;9745;-67
2023/10/30 01:25:19;;;;;;;;;1.00;1.00;;;;;10.47;87.53;99726.25;5023877;28;9775;-67
2023/10/30 01:27:45;;;;;;;;;1.00;1.00;;;;;10.47;87.81;99720.88;5036705;28;9818;-69
2023/10/30 01:30:12;;;;;;;;;2.25;2.25;;;;;10.47;87.45;99720.06;5017964;28;9772;-69
2023/10/30 01:32:39;;;;;;;;;2.00;2.00;;;;;10.42;87.71;99719.91;5042911;28;9882;-68
2023/10/30 01:35:06;;;;;;;;;0.75;0.75;;;;;10.43;87.72;99721.56;5032700;28;9864;-69
2023/10/30 01:37:33;;;;;;;;;0.00;0.00;;;;;10.44;87.94;99734.78;5021161;28;9915;-68
2023/10/30 01:39:59;;;;;;;;;2.00;1.00;;;;;10.44;87.92;99733.94;5049580;28;9677;-68
2023/10/30 01:42:26;;;;;;;;;1.75;1.75;;;;;10.39;87.53;99735.44;5045744;28;10571;-68
2023/10/30 01:44:54;;;;;;;;;2.00;1.00;;;;;10.41;87.92;99737.91;5029263;28;9757;-68
2023/10/30 01:47:21;;;;;;;;;1.25;1.25;;;;;10.40;88.02;99744.31;5046303;28;9643;-69
2023/10/30 01:49:48;;;;;;;;;1.25;1.25;;;;;10.40;88.18;99744.31;5019630;28;9870;-69
2023/10/30 01:52:17;;;;;;;;;1.25;1.00;;;;;10.39;87.96;99734.63;5044361;28;9894;-70
2023/10/30 01:54:46;;;;;;;;;3.00;1.00;;;;;10.37;88.27;99751.00;5034052;28;9713;-69
2023/10/30 01:57:15;;;;;;;;;1.25;1.00;;;;;10.33;88.33;99754.31;5043678;28;10359;-68
2023/10/30 01:59:42;;;;;;;;;0.25;0.25;;;;;10.32;88.40;99747.28;5030036;28;9898;-70
2023/10/30 02:02:10;;;;;;;;;1.25;1.00;;;;;10.16;88.87;99756.69;5038116;28;9754;-70
2023/10/30 02:04:37;;;;;;;;;3.00;3.00;;;;;10.07;89.79;99750.75;5049075;28;9769;-68
2023/10/30 02:07:04;;;;;;;;;2.00;1.00;;;;;10.13;90.05;99757.16;5028555;28;9999;-68
2023/10/30 02:09:32;;;;;;;;;3.00;2.25;;;;;10.18;89.86;99754.63;5025971;28;9783;-67
2023/10/30 02:11:59;;;;;;;;;1.00;1.00;;;;;10.20;90.12;99754.38;5042182;28;9828;-71
2023/10/30 02:14:25;;;;;;;;;2.50;1.00;;;;;10.25;90.10;99754.59;5022286;28;9887;-69
2023/10/30 02:16:52;;;;;;;;;1.50;1.00;;;;;10.19;89.95;99753.56;5053765;28;9735;-67
2023/10/30 02:19:23;;;;;;;;;3.00;1.25;;;;;10.20;90.26;99757.91;5045097;28;9784;-67
2023/10/30 02:21:55;;;;;;;;;3.00;2.25;;;;;10.26;89.94;99761.63;5030540;28;9844;-69
2023/10/30 02:24:22;;;;;;;;;1.50;1.50;;;;;10.27;90.20;99771.34;5055794;28;9860;-70
2023/10/30 02:26:50;;;;;;;;;2.00;2.00;;;;;10.19;89.74;99767.00;5025967;28;9894;-69
2023/10/30 02:29:17;;;;;;;;;1.75;1.75;;;;;10.01;90.66;99761.56;5044237;28;9760;-69
2023/10/30 02:31:44;;;;;;;;;2.50;1.00;;;;;10.04;90.94;99761.94;5044557;28;9854;-68
2023/10/30 02:34:12;;;;;;;;;2.50;2.50;;;;;10.04;90.90;99770.00;5015525;28;9992;-69
2023/10/30 02:36:39;;;;;;;;;1.25;1.25;;;;;10.08;90.66;99770.41;5042540;28;9963;-70
2023/10/30 02:39:07;;;;;;;;;1.00;1.00;;;;;10.09;91.08;99767.50;5014254;28;9939;-69
2023/10/30 02:41:37;;;;;;;;;1.50;1.50;;;;;10.13;90.71;99767.91;5048729;28;9854;-69
2023/10/30 02:44:04;;;;;;;;;3.00;0.00;;;;;10.12;90.61;99767.06;5043639;28;9686;-67
2023/10/30 02:46:31;;;;;;;;;1.00;1.00;;;;;10.12;90.34;99771.59;5025530;28;9635;-69
2023/10/30 02:48:57;;;;;;;;;1.00;1.00;;;;;10.10;90.35;99771.84;5048949;28;9571;-70
2023/10/30 02:51:24;;;;;;;;;1.00;1.00;;;;;10.08;90.50;99765.03;5043586;28;10266;-70
2023/10/30 02:53:50;;;;;;;;;1.00;1.00;;;;;10.11;90.77;99775.34;5048106;28;9912;-70
2023/10/30 02:56:16;;;;;;;;;1.00;1.00;;;;;10.11;90.93;99773.47;5023424;28;9830;-70
2023/10/30 02:58:44;;;;;;;;;1.00;1.00;;;;;10.12;90.62;99772.44;5044051;28;9878;-71
2023/10/30 03:01:10;;;;;;;;;2.25;0.50;;;;;10.12;90.35;99783.19;5046054;28;9923;-68
2023/10/30 03:03:38;;;;;;;;;1.50;0.75;;;;;10.14;90.26;99788.38;5046988;28;9866;-68
2023/10/30 03:06:05;;;;;;;;;0.00;0.00;;;;;10.18;90.05;99794.13;5016598;28;9695;-69
2023/10/30 03:08:32;;;;;;;;;2.75;1.50;;;;;10.16;89.66;99787.09;5040389;28;10414;-68
2023/10/30 03:10:58;;;;;;;;;1.25;0.50;;;;;10.15;90.04;99784.63;5028144;28;9803;-69
2023/10/30 03:13:25;;;;;;;;;0.50;0.50;;;;;10.18;89.74;99786.06;5037854;28;9830;-68
2023/10/30 03:15:51;;;;;;;;;1.75;1.00;;;;;10.19;89.88;99799.28;5049366;28;9748;-68
2023/10/30 03:18:18;;;;;;;;;1.75;0.00;;;;;10.19;89.39;99788.53;5020559;28;9724;-68
2023/10/30 03:20:45;;;;;;;;;0.25;0.25;;;;;10.10;89.60;99806.78;5025746;28;9894;-69
2023/10/30 03:23:13;;;;;;;;;0.50;0.50;;;;;10.09;89.83;99802.47;5014272;28;9941;-67
2023/10/30 03:25:39;;;;;;;;;1.75;1.75;;;;;10.02;90.24;99815.13;5038382;28;9772;-68
2023/10/30 03:28:06;;;;;;;;;3.00;2.00;;;;;10.04;90.15;99809.50;5029989;28;9838;-68
2023/10/30 03:30:35;;;;;;;;;2.00;1.00;;;;;9.95;90.34;99800.88;5050412;28;9953;-67
2023/10/30 03:33:03;;;;;;;;;1.00;1.00;;;;;9.98;90.53;99802.31;5023168;28;9695;-69
2023/10/30 03:35:31;;;;;;;;;1.00;1.00;;;;;10.00;90.10;99801.06;5044988;28;9763;-68
2023/10/30 03:37:57;;;;;;;;;1.00;1.00;;;;;10.04;89.99;99804.13;5029241;28;9678;-68
2023/10/30 03:40:24;;;;;;;;;0.75;0.75;;;;;10.06;90.35;99797.50;5031435;28;9758;-67
2023/10/30 03:42:50;;;;;;;;;0.00;0.00;;;;;10.02;90.10;99796.28;5039537;28;9877;-68
2023/10/30 03:45:16;;;;;;;;;3.00;2.00;;;;;10.05;89.41;99795.06;5010986;28;9745;-68
2023/10/30 03:47:43;;;;;;;;;1.00;1.00;;;;;10.03;89.67;99792.56;5047294;28;9809;-68
2023/10/30 03:50:10;;;;;;;;;0.50;0.00;;;;;9.96;90.17;99796.31;5046026;28;9885;-68
2023/10/30 03:52:36;;;;;;;;;1.25;1.25;;;;;9.97;89.78;99798.00;5029573;28;9671;-68
2023/10/30 03:55:07;;;;;;;;;1.00;1.00;;;;;10.01;90.19;99775.03;5050327;28;9758;-67
2023/10/30 03:57:33;;;;;;;;;1.00;1.00;;;;;10.02;90.06;99780.16;5049625;28;9757;-68
2023/10/30 04:00:00;;;;;;;;;1.00;1.00;;;;;9.93;90.16;99775.28;5032865;28;9886;-68
2023/10/30 04:02:37;;;;;;;;;1.75;1.50;;;;;9.87;90.25;99793.88;5042342;28;9869;-68
2023/10/30 04:05:04;;;;;;;;;2.50;1.00;;;;;9.91;90.14;99792.41;5040777;28;9935;-68
2023/10/30 04:07:30;;;;;;;;;2.75;1.00;;;;;9.91;89.93;99789.72;5025867;28;9756;-68
2023/10/30 04:09:56;;;;;;;;;2.00;1.00;;;;;9.85;90.41;99784.41;5014819;28;9767;-68
2023/10/30 04:12:23;;;;;;;;;0.00;0.00;;;;;9.80;90.26;99787.75;5048251;28;9930;-69
2023/10/30 04:14:51;;;;;;;;;1.00;1.00;;;;;9.87;90.40;99793.88;5030310;28;9692;-68
2023/10/30 04:17:17;;;;;;;;;0.50;0.50;;;;;9.91;90.75;99789.72;5026245;28;9919;-69
2023/10/30 04:19:44;;;;;;;;;0.25;0.25;;;;;9.85;90.24;99779.84;5036021;28;10535;-69
2023/10/30 04:22:10;;;;;;;;;0.25;0.25;;;;;9.83;90.56;99775.72;5051674;28;9762;-69
2023/10/30 04:24:37;;;;;;;;;2.25;2.25;;;;;9.88;90.65;99776.75;5028705;28;9682;-69
2023/10/30 04:27:03;;;;;;;;;0.00;0.00;;;;;9.90;90.43;99758.53;5029471;28;10593;-68
2023/10/30 04:29:30;;;;;;;;;0.25;0.25;;;;;9.97;89.84;99769.25;5041623;28;10472;-69
2023/10/30 04:31:56;;;;;;;;;0.00;0.00;;;;;9.96;90.59;99780.19;5029296;28;9674;-68
2023/10/30 04:34:23;;;;;;;;;1.00;1.00;;;;;9.96;90.21;99780.19;5049834;28;9826;-68
2023/10/30 04:36:49;;;;;;;;;0.00;0.00;;;;;9.99;89.89;99769.03;5038938;28;9722;-69
2023/10/30 04:39:16;;;;;;;;;0.75;0.75;;;;;9.99;89.93;99761.78;5049867;28;9814;-69
2023/10/30 04:41:43;;;;;;;;;1.50;1.00;;;;;9.99;89.75;99764.47;5039381;28;9835;-68
2023/10/30 04:44:09;;;;;;;;;0.50;0.50;;;;;9.99;89.40;99769.03;5047344;28;9855;-68
2023/10/30 04:46:36;;;;;;;;;0.00;0.00;;;;;9.97;89.71;99768.44;5045934;28;9668;-68
2023/10/30 04:49:02;;;;;;;;;3.50;1.25;;;;;9.94;89.70;99769.66;5048318;28;9840;-69
2023/10/30 04:51:29;;;;;;;;;1.75;1.00;;;;;9.90;90.30;99771.97;5028282;28;9902;-69
2023/10/30 04:53:55;;;;;;;;;0.75;0.00;;;;;9.84;90.00;99777.38;5044672;28;9826;-69
2023/10/30 04:56:22;;;;;;;;;0.00;0.00;;;;;9.88;90.00;99771.38;5050410;28;9760;-68
2023/10/30 04:58:49;;;;;;;;;1.75;1.00;;;;;9.90;90.01;99771.16;5029613;28;9901;-69
2023/10/30 05:01:15;;;;;;;;;2.00;1.00;;;;;9.94;89.67;99779.59;5049016;28;9795;-69
2023/10/30 05:03:42;;;;;;;;;3.00;0.75;;;;;9.85;90.50;99779.84;5045096;28;9740;-68
2023/10/30 05:06:08;;;;;;;;;2.00;2.00;;;;;9.86;90.83;99786.88;5036031;28;10622;-68
2023/10/30 05:08:36;;;;;;;;;2.00;1.00;;;;;9.87;90.50;99782.31;5043643;28;9778;-69
2023/10/30 05:11:03;;;;;;;;;1.75;1.75;;;;;9.86;90.11;99788.75;5045446;28;10667;-68
2023/10/30 05:13:29;;;;;;;;;0.00;0.00;;;;;9.87;90.48;99804.63;5023356;28;9954;-68
2023/10/30 05:15:58;;;;;;;;;0.00;0.00;;;;;9.80;91.11;99816.47;5045626;28;9839;-69
2023/10/30 05:18:28;;;;;;;;;2.00;1.00;;;;;9.85;91.03;99805.91;5046423;28;9838;-68
2023/10/30 05:20:55;;;;;;;;;2.00;2.00;;;;;9.88;90.69;99803.63;5044799;28;9850;-68
2023/10/30 05:23:21;;;;;;;;;0.25;0.25;;;;;9.89;90.65;99802.56;5030078;28;9773;-69
2023/10/30 05:25:48;;;;;;;;;2.00;1.00;;;;;9.83;91.11;99787.28;5025769;28;9604;-68
2023/10/30 05:28:14;;;;;;;;;1.50;1.50;;;;;9.84;91.09;99783.59;5050228;28;9680;-69
2023/10/30 05:30:41;;;;;;;;;0.00;0.00;;;;;9.90;91.04;99780.03;5041501;28;10575;-69
2023/10/30 05:33:07;;;;;;;;;5.25;2.25;;;;;9.94;91.18;99784.97;5040396;28;9776;-69
2023/10/30 05:35:34;;;;;;;;;0.75;0.75;;;;;9.90;90.93;99789.97;5034074;28;9758;-69
2023/10/30 05:38:04;;;;;;;;;0.00;0.00;;;;;9.86;90.63;99792.25;5040326;28;10374;-69
2023/10/30 05:40:30;;;;;;;;;2.75;1.25;;;;;9.86;91.19;99789.56;5053175;28;9923;-69
2023/10/30 05:42:56;;;;;;;;;1.00;1.00;;;;;9.88;91.45;99783.97;5041319;28;9891;-69
2023/10/30 05:45:23;;;;;;;;;2.00;0.00;;;;;9.92;91.39;99804.00;5047682;28;9898;-69
2023/10/30 05:47:49;;;;;;;;;1.25;1.25;;;;;9.84;91.57;99797.03;5036642;28;9915;-69
2023/10/30 05:50:16;;;;;;;;;3.00;2.00;;;;;9.83;91.39;99789.97;5056347;28;10081;-69
2023/10/30 05:52:42;;;;;;;;;1.75;1.00;;;;;9.76;91.55;99791.06;5041633;28;10632;-69
2023/10/30 05:55:09;;;;;;;;;2.00;2.00;;;;;9.83;91.69;99798.03;5048705;28;9927;-69
2023/10/30 05:57:37;;;;;;;;;2.25;1.50;;;;;9.90;91.59;99796.16;5014578;28;10070;-69
2023/10/30 06:00:05;;;;;;;;;6.25;1.75;;;;;9.93;91.77;99786.03;5023801;28;10052;-69
2023/10/30 06:02:32;;;;;;;;;2.50;1.50;;;;;9.87;91.33;99787.69;5030935;28;9954;-69
2023/10/30 06:04:58;;;;;;;;;1.00;1.00;;;;;9.91;91.67;99795.09;5044071;28;10007;-69
2023/10/30 06:07:25;;;;;;;;;2.00;2.00;;;;;9.82;91.81;99799.09;5040520;28;9913;-69
2023/10/30 06:09:52;;;;;;;;;1.00;1.00;;;;;9.86;92.25;99810.25;5036192;28;9933;-69
2023/10/30 06:12:18;;;;;;;;;0.25;0.25;;;;;9.90;92.06;99823.03;5026543;28;9923;-69
2023/10/30 06:14:45;;;;;;;;;2.50;2.50;;;;;9.81;92.48;99815.44;5044233;28;10007;-68
2023/10/30 06:17:12;;;;;;;;;3.25;1.25;;;;;9.87;92.01;99801.13;5031810;28;10084;-69
2023/10/30 06:19:38;;;;;;;;;1.00;1.00;;;;;9.89;92.23;99812.50;5025197;28;9972;-69
2023/10/30 06:22:05;;;;;;;;;2.00;1.00;;;;;9.93;92.21;99819.09;5014544;28;9782;-68
2023/10/30 06:24:31;;;;;;;;;1.00;1.00;;;;;9.87;92.22;99814.56;5019419;28;9951;-69
2023/10/30 06:26:58;;;;;;;;;1.00;1.00;;;;;9.94;92.16;99819.94;5040609;28;9987;-68
2023/10/30 06:29:24;;;;;;;;;2.00;2.00;;;;;9.93;92.11;99824.47;5044383;28;9959;-69
2023/10/30 06:31:51;;;;;;;;;1.50;1.50;;;;;9.96;92.39;99831.28;5017642;28;9920;-68
2023/10/30 06:34:17;;;;;;;;;0.00;0.00;;;;;9.97;91.95;99836.47;5047496;28;9991;-69
2023/10/30 06:36:46;;;;;;;;;3.50;1.00;;;;;9.94;92.00;99836.06;5024314;28;10369;-69
2023/10/30 06:39:17;;;;;;;;;1.00;1.00;;;;;9.89;92.16;99829.47;5043003;28;9761;-69
2023/10/30 06:41:44;;;;;;;;;3.00;1.25;;;;;9.89;92.36;99844.78;5056492;28;9745;-69
2023/10/30 06:44:10;;;;;;;;;1.00;1.00;;;;;9.83;92.79;99849.13;5011729;28;9894;-69
2023/10/30 06:46:37;;;;;;;;;1.25;1.25;;;;;9.85;92.98;99849.75;5020546;28;9849;-69
2023/10/30 06:49:04;;;;;;;;;1.75;0.25;;;;;9.91;93.17;99848.06;5054121;28;10055;-69
2023/10/30 06:51:30;;;;;;;;;2.00;2.00;;;;;9.94;92.74;99846.81;5053541;28;9907;-69
2023/10/30 06:53:57;;;;;;;;;1.00;1.00;;;;;9.95;92.68;99857.34;5028741;28;9749;-69
2023/10/30 06:56:23;;;;;;;;;1.00;1.00;;;;;9.89;93.11;99859.03;5025828;28;9763;-69
2023/10/30 06:58:50;;;;;;;;;1.00;1.00;;;;;9.93;92.82;99861.28;5042235;28;9994;-69
2023/10/30 07:01:16;;;;;;;;;1.50;1.00;;;;;9.94;92.43;99862.94;5027805;28;9921;-68
2023/10/30 07:03:43;;;;;;;;;6.00;1.25;;;;;9.97;92.91;99854.44;5008927;28;9861;-68
2023/10/30 07:06:11;;;;;;;;;1.75;1.00;;;;;9.96;93.06;99855.47;5043111;28;9777;-69
2023/10/30 07:08:37;;;;;;;;;1.50;1.50;;;;;9.95;93.25;99864.56;5033742;28;9725;-69
2023/10/30 07:11:04;;;;;;;;;1.00;1.00;;;;;10.00;93.30;99851.31;5039673;28;9777;-69
2023/10/30 07:13:30;;;;;;;;;3.25;2.00;;;;;10.03;93.23;99862.47;5044173;28;9981;-69
2023/10/30 07:15:57;;;;;;;;;5.75;2.00;;;;;10.01;92.98;99858.38;5030577;28;10000;-69
2023/10/30 07:18:23;;;;;;;;;1.25;1.00;;;;;10.05;92.87;99859.59;5018251;28;9894;-69
2023/10/30 07:20:50;;;;;;;;;1.75;1.00;;;;;10.05;93.32;99855.03;5040993;28;9860;-70
2023/10/30 07:23:17;;;;;;;;;3.00;1.00;;;;;10.06;93.42;99869.28;5049626;28;9851;-69
2023/10/30 07:25:44;;;;;;;;;2.00;1.50;;;;;10.09;93.37;99871.56;5054321;28;9739;-68
2023/10/30 07:28:11;;;;;;;;;0.50;0.50;;;;;10.13;93.05;99880.84;5026276;28;10056;-68
2023/10/30 07:30:38;;;;;;;;;2.00;2.00;;;;;10.12;92.93;99866.53;5051781;28;9978;-68
2023/10/30 07:33:04;;;;;;;;;2.00;2.00;;;;;10.14;93.26;99866.34;5050129;28;9917;-69
2023/10/30 07:35:34;;;;;;;;;1.50;1.25;;;;;10.16;93.45;99869.63;5028627;28;10018;-68
2023/10/30 07:38:01;;;;;;;;;2.00;1.50;;;;;10.15;93.47;99884.94;5031590;28;9831;-69
2023/10/30 07:40:27;;;;;;;;;2.00;2.00;;;;;10.19;93.30;99882.66;5034214;28;10008;-68
2023/10/30 07:42:54;;;;;;;;;2.00;2.00;;;;;10.22;93.61;99887.63;5028138;28;9900;-67
2023/10/30 07:45:21;;;;;;;;;4.75;2.00;;;;;10.31;93.88;99891.72;5045689;28;9854;-67
2023/10/30 07:47:47;;;;;;;;;1.50;1.50;;;;;10.35;93.50;99874.09;5020722;28;9873;-69
2023/10/30 07:50:14;;;;;;;;;3.00;1.50;;;;;10.36;93.47;99877.63;5031420;28;9755;-69
2023/10/30 07:52:40;;;;;;;;;1.00;1.00;;;;;10.37;93.87;99888.19;5034340;28;9845;-68
2023/10/30 07:55:09;;;;;;;;;2.00;2.00;;;;;10.43;93.78;99894.56;5046892;28;9838;-68
2023/10/30 07:57:35;;;;;;;;;2.00;2.00;;;;;10.43;94.15;99896.44;5032011;28;9953;-68
2023/10/30 08:00:03;;;;;;;;;3.00;2.00;;;;;10.51;93.88;99898.84;5049371;28;9843;-70
2023/10/30 08:02:38;;;;;;;;;2.75;2.75;;;;;10.58;93.54;99902.34;5046920;28;9847;-68
2023/10/30 08:05:06;;;;;;;;;0.00;0.00;;;;;10.58;93.26;99905.84;5038800;28;9665;-68
2023/10/30 08:07:35;;;;;;;;;3.50;3.00;;;;;10.57;93.06;99906.91;5031676;28;9528;-68
2023/10/30 08:10:03;;;;;;;;;6.50;3.75;;;;;10.51;93.04;99902.38;5038244;28;9772;-68
2023/10/30 08:12:30;;;;;;;;;4.00;3.00;;;;;10.48;93.64;99901.97;5046870;28;10630;-70
2023/10/30 08:14:56;;;;;;;;;4.00;3.75;;;;;10.49;93.61;99909.00;5028761;28;9769;-69
2023/10/30 08:17:23;;;;;;;;;2.00;2.00;;;;;10.52;93.47;99909.38;5049966;28;9703;-68
2023/10/30 08:19:49;;;;;;;;;2.50;2.00;;;;;10.51;93.95;99915.00;5025818;28;9817;-69
2023/10/30 08:22:16;;;;;;;;;1.50;1.00;;;;;10.50;93.94;99903.41;5048143;28;9687;-68
2023/10/30 08:24:43;;;;;;;;;3.75;2.00;;;;;10.52;93.77;99897.81;5046617;28;9765;-68
2023/10/30 08:27:09;;;;;;;;;2.00;2.00;;;;;10.55;94.03;99892.00;5039615;28;9716;-68
2023/10/30 08:29:35;;;;;;;;;2.75;2.75;;;;;10.57;94.15;99884.50;5042149;28;9714;-68
2023/10/30 08:32:02;;;;;;;;;4.50;3.00;;;;;10.60;94.11;99894.84;5044339;28;9781;-68
2023/10/30 08:34:29;;;;;;;;;2.25;2.25;;;;;10.65;94.36;99889.63;5031461;28;9899;-68
2023/10/30 08:36:55;;;;;;;;;3.25;1.50;;;;;10.71;94.59;99880.69;5042699;28;9844;-68
2023/10/30 08:39:22;;;;;;;;;2.25;1.00;;;;;10.75;94.77;99879.22;5015238;28;9907;-68
2023/10/30 08:41:48;;;;;;;;;1.00;1.00;;;;;10.86;94.61;99875.81;5045271;28;9838;-68
2023/10/30 08:44:15;;;;;;;;;3.50;2.00;;;;;10.82;94.54;99881.88;5045018;28;9748;-69
2023/10/30 08:46:41;;;;;;;;;3.00;3.00;;;;;10.86;94.46;99883.91;5040559;28;9933;-69
2023/10/30 08:49:08;;;;;;;;;1.00;1.00;;;;;10.90;95.05;99889.69;5043723;28;9728;-68
2023/10/30 08:51:41;;;;;;;;;3.00;1.00;;;;;11.01;94.48;99893.50;5031536;28;10846;-68
2023/10/30 08:54:23;;;;;;;;;1.75;1.75;;;;;10.98;94.20;99899.31;5039080;28;9750;-68
2023/10/30 08:56:49;;;;;;;;;1.75;1.50;;;;;10.93;94.40;99896.47;5038913;28;9876;-69
2023/10/30 08:59:19;;;;;;;;;2.00;1.50;;;;;11.01;94.32;99898.88;5018559;28;9958;-69
2023/10/30 09:01:46;;;;;;;;;3.25;2.00;;;;;11.07;94.26;99912.31;5029467;28;9759;-68
2023/10/30 09:04:12;;;;;;;;;3.75;2.75;;;;;11.08;94.14;99918.53;5046612;28;9775;-68
2023/10/30 09:06:39;;;;;;;;;1.25;1.25;;;;;11.05;94.05;99919.78;5048434;28;9898;-68
2023/10/30 09:09:05;;;;;;;;;3.75;2.75;;;;;11.00;94.31;99910.72;5034241;28;9815;-68
2023/10/30 09:11:32;;;;;;;;;6.25;4.00;;;;;10.99;94.61;99915.28;5026175;28;10423;-68
2023/10/30 09:13:58;;;;;;;;;2.00;1.00;;;;;11.05;94.47;99919.78;5040557;28;10480;-67
2023/10/30 09:16:25;;;;;;;;;1.00;1.00;;;;;11.08;94.13;99910.44;5043473;28;10506;-67
2023/10/30 09:18:53;;;;;;;;;2.25;1.25;;;;;11.12;94.33;99925.13;5048574;28;9624;-68
2023/10/30 09:21:20;;;;;;;;;2.75;1.50;;;;;11.09;93.85;99928.25;5022263;28;9755;-68
2023/10/30 09:23:47;;;;;;;;;1.50;1.50;;;;;10.99;94.55;99926.03;5037419;28;9752;-68
2023/10/30 09:26:14;;;;;;;;;1.75;1.75;;;;;11.05;94.47;99933.25;5044907;28;9758;-67
2023/10/30 09:28:41;;;;;;;;;2.00;2.00;;;;;11.09;94.19;99937.13;5042476;28;9723;-68
2023/10/30 09:31:08;;;;;;;;;1.50;1.00;;;;;11.13;94.53;99938.34;5028529;28;9784;-68
2023/10/30 09:33:34;;;;;;;;;1.00;1.00;;;;;11.15;94.54;99932.75;5041208;28;9624;-68
2023/10/30 09:36:01;;;;;;;;;2.00;2.00;;;;;11.17;94.54;99929.84;5050425;28;9768;-68
2023/10/30 09:38:27;;;;;;;;;2.00;1.00;;;;;11.20;94.64;99924.00;5046759;28;9877;-68
2023/10/30 09:41:04;;;;;;;;;2.00;2.00;;;;;11.19;94.36;99923.19;5038503;28;9637;-68
2023/10/30 09:43:33;;;;;;;;;2.50;2.50;;;;;11.14;95.11;99918.47;5032571;28;9693;-68
2023/10/30 09:46:01;;;;;;;;;4.50;3.50;;;;;11.12;95.68;99933.19;5033476;28;10427;-68
2023/10/30 09:48:31;;;;;;;;;3.00;2.50;;;;;11.18;95.70;99937.72;5018639;28;9766;-68
2023/10/30 09:50:58;;;;;;;;;1.50;1.50;;;;;11.29;95.45;99930.75;5044862;28;9779;-68
2023/10/30 09:53:25;;;;;;;;;2.00;2.00;;;;;11.34;95.08;99929.06;5038307;28;9632;-67
2023/10/30 09:55:54;;;;;;;;;4.00;2.25;;;;;11.39;94.90;99941.88;5038227;28;9679;-68
2023/10/30 09:58:23;;;;;;;;;3.25;3.25;;;;;11.47;95.00;99933.50;5043015;28;9847;-67
2023/10/30 10:00:49;;;;;;;;;3.25;2.75;;;;;11.45;94.98;99929.38;5038774;28;9606;-67
2023/10/30 10:03:16;;;;;;;;;4.25;2.00;;;;;11.58;95.03;99918.44;5027640;28;9671;-68
2023/10/30 10:05:42;;;;;;;;;1.00;1.00;;;;;11.63;94.78;99921.31;5039299;28;9677;-68
2023/10/30 10:08:09;;;;;;;;;2.00;2.00;;;;;11.58;94.20;99930.06;5050193;28;9533;-69
2023/10/30 10:10:56;;;;;;;;;4.50;3.00;;;;;11.52;93.99;99927.44;5035901;28;9706;-69
2023/10/30 10:13:24;;;;;;;;;3.00;3.00;;;;;11.39;94.78;99933.78;5030366;28;11035;-69
2023/10/30 10:15:52;;;;;;;;;2.50;1.50;;;;;11.45;94.91;99932.06;5045303;28;9755;-69
2023/10/30 10:18:30;;;;;;;;;2.25;2.25;;;;;11.49;94.80;99920.63;5053967;28;10386;-68
2023/10/30 10:20:59;;;;;;;;;3.00;1.00;;;;;11.58;94.63;99907.66;5037751;28;9739;-68
2023/10/30 10:23:32;;;;;;;;;2.50;1.00;;;;;11.64;94.45;99910.31;5049622;28;9465;-68
2023/10/30 10:26:04;;;;;;;;;3.50;1.00;;;;;11.61;94.66;99899.13;5022359;28;9600;-70
2023/10/30 10:28:33;;;;;;;;;2.75;1.25;;;;;11.67;94.31;99900.97;5036996;28;9594;-69
2023/10/30 10:31:00;;;;;;;;;3.00;3.00;;;;;11.73;94.08;99901.91;5043196;28;9535;-69
2023/10/30 10:33:27;;;;;;;;;4.50;3.00;;;;;11.76;94.19;99905.00;5027722;28;9555;-69
2023/10/30 10:35:56;;;;;;;;;3.00;2.00;;;;;11.78;93.79;99900.19;5036188;28;9680;-69
2023/10/30 10:38:22;;;;;;;;;2.25;2.25;;;;;11.78;94.07;99896.66;5029002;28;9891;-68
2023/10/30 10:40:50;;;;;;;;;3.25;2.25;;;;;11.75;94.08;99897.97;5041238;28;9656;-67
2023/10/30 10:43:21;;;;;;;;;3.00;2.75;;;;;11.85;94.84;99900.16;5037543;28;9567;-67
2023/10/30 10:45:51;;;;;;;;;3.00;1.00;;;;;11.87;94.38;99896.19;5023615;28;9548;-68
2023/10/30 10:48:21;;;;;;;;;2.00;2.00;;;;;11.91;94.23;99888.47;5035864;28;9594;-68
2023/10/30 10:50:48;;;;;;;;;2.75;1.00;;;;;11.96;94.07;99885.09;5044492;28;9563;-68
2023/10/30 10:53:19;;;;;;;;;1.00;1.00;;;;;11.98;93.85;99889.19;5025287;28;9683;-67
2023/10/30 10:55:48;;;;;;;;;2.75;2.50;;;;;11.95;93.97;99899.59;5025347;28;10312;-67
2023/10/30 10:58:17;;;;;;;;;3.75;1.50;;;;;12.00;93.59;99888.97;5045078;28;10288;-67
2023/10/30 11:00:52;;;;;;;;;2.25;2.25;;;;;11.93;94.05;99893.63;5016213;28;10223;-67
2023/10/30 11:03:21;;;;;;;;;2.50;2.00;;;;;11.97;93.97;99882.16;5045586;28;9810;-67
2023/10/30 11:05:52;;;;;;;;;2.50;1.75;;;;;11.94;93.96;99890.69;5038473;28;9481;-67
2023/10/30 11:08:37;;;;;;;;;2.00;2.00;;;;;11.94;94.01;99889.88;5040445;28;10282;-68
2023/10/30 11:11:19;;;;;;;;;3.75;1.50;;;;;11.93;93.90;99886.34;5027591;28;10283;-68
2023/10/30 11:14:11;;;;;;;;;2.00;1.00;;;;;11.90;93.96;99878.72;5048356;28;9398;-68
2023/10/30 11:16:48;;;;;;;;;2.00;2.00;;;;;11.94;94.07;99890.69;5039391;28;9577;-68
2023/10/30 11:19:19;;;;;;;;;2.25;2.25;;;;;11.92;94.42;99889.28;5026967;28;10230;-69
2023/10/30 11:21:49;;;;;;;;;1.50;1.50;;;;;11.92;94.45;99890.13;5039062;28;9540;-68
2023/10/30 11:24:43;;;;;;;;;3.25;2.50;;;;;11.96;94.26;99896.69;5030775;28;9598;-68
2023/10/30 11:27:25;;;;;;;;;3.00;2.00;;;;;12.04;94.29;99887.47;5049730;28;9534;-68
2023/10/30 11:29:55;;;;;;;;;3.50;2.25;;;;;12.04;94.21;99884.78;5051832;28;9472;-70
2023/10/30 11:32:24;;;;;;;;;4.00;4.00;;;;;12.09;94.14;99884.91;5022674;28;9579;-69
2023/10/30 11:34:50;;;;;;;;;2.50;2.00;;;;;12.11;94.16;99885.50;5043619;28;9577;-69
2023/10/30 11:37:23;;;;;;;;;3.50;2.00;;;;;12.15;93.79;99867.81;5045579;28;9533;-69
2023/10/30 11:39:54;;;;;;;;;2.75;2.50;;;;;12.18;93.87;99863.84;5044857;28;9451;-69
2023/10/30 11:42:28;;;;;;;;;3.75;3.50;;;;;12.17;93.73;99860.31;5048153;28;9470;-68
2023/10/30 11:45:14;;;;;;;;;3.00;3.00;;;;;12.22;93.43;99871.25;5048200;28;10461;-69
2023/10/30 11:48:08;;;;;;;;;3.67;1.67;;;;;12.20;93.77;99862.56;5043448;28;9444;-69